Terminal Aerodrome Forecast
Issued by NWS Charleston, WV

Current Version | Previous Version | Text Only | Print | Product List | Glossary Off
Versions: 1 2 3 4 5 6 7 8 9 10 11 12 13 14 15 16 17 18 19 20 21 22 23 24

000
FTUS41 KRLX 132000 AAA
TAFPKB
TAF AMD
KPKB 132026Z 1320/1418 22012G22KT P6SM SCT250
     FM140000 22007G22KT P6SM SCT100
     FM140800 19009G16KT P6SM BKN150
     FM141400 20013G23KT P6SM BKN250=

USA.gov is the U.S. government's official web portal to all federal, state and local government web resources and services.